Time;durP1;ratioP1;P1;durP2;ratioP2;P2;SDS_P1;SDS_P2;PMS_P1;PMS_P2;Temp;Humidity;BMP_temperature;BMP_pressure;BME280_temperature;BME280_humidity;BME280_pressure;Samples;Min_cycle;Max_cycle;Signal;HPM_P1;HPM_P2
2023/09/17 00:00:11;;;;;;;19.80;17.70;;;;;;;14.65;100.00;101381.94;88667;278;140892;-73
2023/09/17 00:02:13;;;;;;;30.40;17.80;;;;;;;14.66;100.00;101382.57;88824;279;24661;-72
2023/09/17 00:04:15;;;;;;;19.80;18.10;;;;;;;14.67;100.00;101380.38;88327;280;137544;-71
2023/09/17 00:06:17;;;;;;;19.70;17.80;;;;;;;14.70;100.00;101383.48;88514;282;24731;-72
2023/09/17 00:08:19;;;;;;;17.90;16.20;;;;;;;14.72;100.00;101382.00;88349;274;137571;-71
2023/09/17 00:10:22;;;;;;;19.80;18.00;;;;;;;14.73;100.00;101382.32;88566;274;22622;-72
2023/09/17 00:12:24;;;;;;;20.70;17.90;;;;;;;14.73;100.00;101378.60;88377;275;139563;-71
2023/09/17 00:14:26;;;;;;;21.10;18.80;;;;;;;14.70;100.00;101379.48;88492;276;25302;-70
2023/09/17 00:16:31;;;;;;;18.90;17.20;;;;;;;14.69;100.00;101376.61;88501;282;137539;-72
2023/09/17 00:18:33;;;;;;;18.90;17.00;;;;;;;14.69;100.00;101381.81;88764;274;23141;-70
2023/09/17 00:20:35;;;;;;;20.40;18.20;;;;;;;14.70;100.00;101383.94;88524;282;137228;-73
2023/09/17 00:22:38;;;;;;;20.40;18.40;;;;;;;14.73;100.00;101384.16;88687;284;22706;-72
2023/09/17 00:24:41;;;;;;;18.60;16.80;;;;;;;14.75;100.00;101388.20;88641;283;136765;-72
2023/09/17 00:26:42;;;;;;;19.30;17.50;;;;;;;14.77;100.00;101386.82;88838;273;22631;-72
2023/09/17 00:28:44;;;;;;;19.90;18.20;;;;;;;14.78;100.00;101385.67;88572;281;137527;-71
2023/09/17 00:30:46;;;;;;;18.80;17.00;;;;;;;14.77;100.00;101381.94;88626;283;22529;-72
2023/09/17 00:32:49;;;;;;;18.60;16.80;;;;;;;14.80;100.00;101380.45;88749;276;137949;-72
2023/09/17 00:34:51;;;;;;;18.50;16.80;;;;;;;14.80;100.00;101379.83;88455;273;22852;-71
2023/09/17 00:36:53;;;;;;;17.10;15.60;;;;;;;14.80;100.00;101378.84;88132;282;137132;-72
2023/09/17 00:38:54;;;;;;;20.00;18.10;;;;;;;14.81;100.00;101379.46;88453;279;22532;-74
2023/09/17 00:41:00;;;;;;;19.10;17.20;;;;;;;14.76;100.00;101368.80;88277;283;137649;-70
2023/09/17 00:43:02;;;;;;;17.90;16.10;;;;;;;14.81;100.00;101379.25;88516;280;25083;-71
2023/09/17 00:45:04;;;;;;;17.80;16.30;;;;;;;14.78;100.00;101378.86;88501;282;137978;-72
2023/09/17 00:47:07;;;;;;;18.60;16.90;;;;;;;14.75;100.00;101379.81;88411;274;25334;-72
2023/09/17 00:49:13;;;;;;;18.90;16.30;;;;;;;14.71;100.00;101379.98;88265;283;137015;-70
2023/09/17 00:51:15;;;;;;;19.20;17.40;;;;;;;14.69;100.00;101378.55;88580;279;25121;-73
2023/09/17 00:53:17;;;;;;;18.80;17.20;;;;;;;14.67;100.00;101378.82;88400;275;137527;-71
2023/09/17 00:55:19;;;;;;;18.60;16.90;;;;;;;14.65;100.00;101381.58;88481;282;22545;-72
2023/09/17 00:57:22;;;;;;;17.90;16.20;;;;;;;14.54;100.00;101369.67;88575;282;137595;-74
2023/09/17 00:59:25;;;;;;;18.60;16.90;;;;;;;14.54;100.00;101383.42;88382;282;22550;-70
2023/09/17 01:01:27;;;;;;;17.60;16.00;;;;;;;14.47;100.00;101383.70;88494;282;138837;-71
2023/09/17 01:03:31;;;;;;;18.30;16.80;;;;;;;14.40;100.00;101384.92;88512;282;25216;-70
2023/09/17 01:05:39;;;;;;;18.70;16.90;;;;;;;14.33;100.00;101384.89;88587;280;138754;-71
2023/09/17 01:07:41;;;;;;;18.50;16.80;;;;;;;14.27;100.00;101382.08;88761;278;22705;-71
2023/09/17 01:09:43;;;;;;;18.40;16.80;;;;;;;14.23;100.00;101385.58;88442;282;137257;-72
2023/09/17 01:11:45;;;;;;;17.10;15.50;;;;;;;14.17;100.00;101381.42;88410;280;25215;-70
2023/09/17 01:13:58;;;;;;;17.00;15.40;;;;;;;14.14;100.00;101384.39;88162;278;138196;-71
2023/09/17 01:16:03;;;;;;;18.40;16.50;;;;;;;14.04;100.00;101372.73;88543;282;23888;-71
2023/09/17 01:18:09;;;;;;;17.90;16.30;;;;;;;14.11;100.00;101381.14;88487;278;25723;-72
2023/09/17 01:20:29;;;;;;;17.80;16.20;;;;;;;14.10;100.00;101384.54;88394;275;137711;-73
2023/09/17 01:22:44;;;;;;;17.30;15.80;;;;;;;14.09;100.00;101381.73;88462;278;25238;-71
2023/09/17 01:25:15;;;;;;;17.60;15.90;;;;;;;14.10;100.00;101382.19;88286;279;137188;-73
2023/09/17 01:27:21;;;;;;;16.80;15.30;;;;;;;14.03;100.00;101379.58;88330;283;23861;-71
2023/09/17 01:29:23;;;;;;;16.30;14.70;;;;;;;13.99;100.00;101380.36;88341;281;137533;-74
2023/09/17 01:31:25;;;;;;;19.00;17.10;;;;;;;13.96;100.00;101377.27;88423;282;24028;-73
2023/09/17 01:33:28;;;;;;;25.30;23.10;;;;;;;13.95;100.00;101376.14;88573;275;137596;-69
2023/09/17 01:35:33;;;;;;;34.40;31.30;;;;;;;13.94;100.00;101375.54;88491;276;24876;-71
2023/09/17 01:37:36;;;;;;;;;;;;;;;14.00;100.00;101370.89;88298;281;137265;-71
2023/09/17 01:39:53;;;;;;;34.10;30.90;;;;;;;14.03;100.00;101372.27;88347;276;22554;-70
2023/09/17 01:41:55;;;;;;;27.90;25.30;;;;;;;14.06;100.00;101370.54;88612;279;138041;-72
2023/09/17 01:43:58;;;;;;;31.00;28.20;;;;;;;14.11;100.00;101373.13;88319;280;24258;-72
2023/09/17 01:46:00;;;;;;;19.40;17.80;;;;;;;14.10;100.00;101369.94;88272;283;137853;-72
2023/09/17 01:48:03;;;;;;;18.30;16.60;;;;;;;14.12;100.00;101367.61;88943;282;24965;-71
2023/09/17 01:50:06;;;;;;;17.20;15.70;;;;;;;14.12;100.00;101367.42;89124;274;24023;-73
2023/09/17 01:52:10;;;;;;;17.00;15.50;;;;;;;14.15;100.00;101366.73;88209;283;138550;-73
2023/09/17 01:54:12;;;;;;;16.00;14.70;;;;;;;14.15;100.00;101364.73;88467;279;22596;-72
2023/09/17 01:56:14;;;;;;;15.70;14.40;;;;;;;14.13;100.00;101364.99;88272;282;137713;-73
2023/09/17 01:58:17;;;;;;;17.60;16.10;;;;;;;14.10;100.00;101361.58;88279;280;25672;-72
2023/09/17 02:00:19;;;;;;;16.70;15.20;;;;;;;14.05;100.00;101362.23;88399;282;138540;-72
2023/09/17 02:02:21;;;;;;;16.00;14.60;;;;;;;14.01;100.00;101362.81;88288;283;25248;-73
2023/09/17 02:04:24;;;;;;;15.30;14.10;;;;;;;14.01;100.00;101366.65;88193;280;137525;-72
2023/09/17 02:06:27;;;;;;;16.40;15.00;;;;;;;14.01;100.00;101366.66;88634;275;22521;-71
2023/09/17 02:08:30;;;;;;;15.00;13.70;;;;;;;14.01;100.00;101363.70;88440;275;137841;-75
2023/09/17 02:10:32;;;;;;;16.50;14.90;;;;;;;14.01;100.00;101360.30;90151;282;23779;-75
2023/09/17 02:12:36;;;;;;;16.80;15.30;;;;;;;14.01;100.00;101357.63;88317;276;137540;-74
2023/09/17 02:14:38;;;;;;;15.30;14.00;;;;;;;14.03;100.00;101356.20;88361;276;25213;-75
2023/09/17 02:16:41;;;;;;;16.60;15.20;;;;;;;14.02;100.00;101355.20;88196;283;137437;-73
2023/09/17 02:18:44;;;;;;;15.50;14.20;;;;;;;14.04;100.00;101355.75;88534;281;25111;-70
2023/09/17 02:20:46;;;;;;;14.30;13.20;;;;;;;14.05;100.00;101354.83;88251;283;138538;-70
2023/09/17 02:22:48;;;;;;;14.00;12.90;;;;;;;14.00;100.00;101352.21;88469;282;24049;-70
2023/09/17 02:24:50;;;;;;;15.00;13.80;;;;;;;13.96;100.00;101349.67;88367;278;137310;-73
2023/09/17 02:26:52;;;;;;;16.30;14.70;;;;;;;13.93;100.00;101350.83;88477;281;22628;-68
2023/09/17 02:28:54;;;;;;;14.90;13.60;;;;;;;13.87;100.00;101348.08;88258;283;137162;-70
2023/09/17 02:30:59;;;;;;;15.50;14.20;;;;;;;13.85;100.00;101349.77;88574;274;22610;-71
2023/09/17 02:33:01;;;;;;;;;;;;;;;13.85;100.00;101350.52;88528;282;137468;-72
2023/09/17 02:35:07;;;;;;;15.50;14.10;;;;;;;13.84;100.00;101349.39;88443;282;22525;-73
2023/09/17 02:37:09;;;;;;;16.30;14.80;;;;;;;13.83;100.00;101348.55;88269;284;138530;-74
2023/09/17 02:39:11;;;;;;;15.60;14.10;;;;;;;13.84;100.00;101347.95;88428;282;22539;-72
2023/09/17 02:41:13;;;;;;;14.70;13.50;;;;;;;13.85;100.00;101346.64;88165;275;137296;-73
2023/09/17 02:43:16;;;;;;;14.50;13.30;;;;;;;13.86;100.00;101347.89;88569;273;22565;-71
2023/09/17 02:45:19;;;;;;;15.60;14.30;;;;;;;13.88;100.00;101346.96;88394;281;137504;-76
2023/09/17 02:47:20;;;;;;;14.50;13.40;;;;;;;13.89;100.00;101348.05;88448;282;22539;-75
2023/09/17 02:49:22;;;;;;;13.40;12.30;;;;;;;13.89;100.00;101348.19;88631;279;137272;-72
2023/09/17 02:51:27;;;;;;;14.10;13.00;;;;;;;13.86;100.00;101341.33;88914;282;22537;-73
2023/09/17 02:53:29;;;;;;;14.30;12.80;;;;;;;13.92;100.00;101347.89;88529;274;139003;-75
2023/09/17 02:55:32;;;;;;;13.90;12.60;;;;;;;13.93;100.00;101349.55;88435;279;22925;-75
2023/09/17 02:57:34;;;;;;;14.30;13.20;;;;;;;13.93;100.00;101347.38;88507;278;138956;-73
2023/09/17 02:59:35;;;;;;;14.30;13.20;;;;;;;13.93;100.00;101348.11;88540;279;24018;-76
2023/09/17 03:01:40;;;;;;;14.90;13.70;;;;;;;13.93;100.00;101344.77;88501;279;138942;-77
2023/09/17 03:03:42;;;;;;;13.50;12.50;;;;;;;13.91;100.00;101346.07;88550;283;22534;-73
2023/09/17 03:05:46;;;;;;;15.10;13.70;;;;;;;13.91;100.00;101348.16;88384;283;136840;-75
2023/09/17 03:07:48;;;;;;;14.10;12.80;;;;;;;13.92;100.00;101349.15;88497;277;24105;-74
2023/09/17 03:09:50;;;;;;;16.20;14.70;;;;;;;13.90;100.00;101347.91;88606;279;138068;-75
2023/09/17 03:11:52;;;;;;;15.70;14.10;;;;;;;13.90;100.00;101346.74;88482;283;25193;-76
2023/09/17 03:13:55;;;;;;;17.00;15.40;;;;;;;13.87;100.00;101347.25;88493;284;137296;-75
2023/09/17 03:15:58;;;;;;;14.80;13.60;;;;;;;13.80;100.00;101333.23;88534;282;25141;-74
2023/09/17 03:18:00;;;;;;;16.40;15.00;;;;;;;13.88;100.00;101340.90;88379;283;136951;-75
2023/09/17 03:20:13;;;;;;;14.90;13.50;;;;;;;13.87;100.00;101344.06;88403;283;22648;-75
2023/09/17 03:22:16;;;;;;;15.20;13.80;;;;;;;13.86;100.00;101346.29;88525;284;25112;-73
2023/09/17 03:24:18;;;;;;;15.40;14.10;;;;;;;13.83;100.00;101343.04;88413;284;138654;-74
2023/09/17 03:26:21;;;;;;;14.80;13.50;;;;;;;13.81;100.00;101341.83;88643;283;24088;-73
2023/09/17 03:28:23;;;;;;;15.10;13.70;;;;;;;13.80;100.00;101343.73;88755;282;137253;-74
2023/09/17 03:30:26;;;;;;;13.40;12.40;;;;;;;13.78;100.00;101343.30;88668;275;22843;-73
2023/09/17 03:32:29;;;;;;;15.70;14.30;;;;;;;13.78;100.00;101343.66;89991;281;137596;-75
2023/09/17 03:34:33;;;;;;;14.90;13.50;;;;;;;13.77;100.00;101345.19;88827;279;22521;-72
2023/09/17 03:36:35;;;;;;;14.20;13.10;;;;;;;13.80;100.00;101346.54;88631;283;137589;-74
2023/09/17 03:38:38;;;;;;;13.70;12.50;;;;;;;13.80;100.00;101343.89;88911;281;22557;-74
2023/09/17 03:40:40;;;;;;;14.60;13.30;;;;;;;13.79;100.00;101342.58;88553;283;137412;-74
2023/09/17 03:42:43;;;;;;;14.10;12.80;;;;;;;13.79;100.00;101346.77;88793;282;22575;-73
2023/09/17 03:44:46;;;;;;;13.30;12.30;;;;;;;13.79;100.00;101346.86;88853;282;137686;-73
2023/09/17 03:46:48;;;;;;;14.70;13.40;;;;;;;13.77;100.00;101346.33;88745;283;22478;-73
2023/09/17 03:48:51;;;;;;;17.60;14.60;;;;;;;13.75;100.00;101343.98;88677;282;138700;-75
2023/09/17 03:50:53;;;;;;;13.80;12.60;;;;;;;13.73;100.00;101346.23;88712;279;25083;-73
2023/09/17 03:52:57;;;;;;;15.70;14.30;;;;;;;13.74;100.00;101349.26;88507;282;137546;-74
2023/09/17 03:54:59;;;;;;;15.50;14.10;;;;;;;13.79;100.00;101347.64;88581;280;24075;-75
2023/09/17 03:57:01;;;;;;;16.80;14.50;;;;;;;13.80;100.00;101347.86;88581;281;137168;-72
2023/09/17 03:59:04;;;;;;;14.10;12.70;;;;;;;13.83;100.00;101347.13;88943;283;22870;-74
2023/09/17 04:01:07;;;;;;;13.70;12.50;;;;;;;13.86;100.00;101344.52;88873;280;137406;-72
2023/09/17 04:03:09;;;;;;;14.90;13.40;;;;;;;13.90;100.00;101347.16;89006;274;22558;-75
2023/09/17 04:05:13;;;;;;;14.30;12.70;;;;;;;14.07;100.00;101348.58;88757;276;137208;-73
2023/09/17 04:07:15;;;;;;;14.40;13.20;;;;;;;14.34;100.00;101342.66;88729;283;25103;-75
2023/09/17 04:09:17;;;;;;;14.60;13.40;;;;;;;14.66;100.00;101344.14;88565;281;137536;-74
2023/09/17 04:11:20;;;;;;;13.60;12.20;;;;;;;15.00;100.00;101346.20;88445;277;25171;-73
2023/09/17 04:13:22;;;;;;;12.90;11.80;;;;;;;15.34;100.00;101345.32;88532;281;137696;-73
2023/09/17 04:15:24;;;;;;;13.50;12.40;;;;;;;15.66;100.00;101346.83;88714;274;25102;-73
2023/09/17 04:17:26;;;;;;;13.40;12.20;;;;;;;15.97;100.00;101346.48;88284;277;137904;-72
2023/09/17 04:19:32;;;;;;;12.50;11.50;;;;;;;16.24;100.00;101345.64;88860;273;24055;-75
2023/09/17 04:21:34;;;;;;;12.80;11.70;;;;;;;16.52;100.00;101347.72;88368;279;138765;-75
2023/09/17 04:23:36;;;;;;;12.40;11.10;;;;;;;16.80;100.00;101350.29;88593;284;22539;-73
2023/09/17 04:25:37;;;;;;;14.40;13.10;;;;;;;17.17;100.00;101351.28;88331;278;138821;-73
2023/09/17 04:27:41;;;;;;;11.50;10.40;;;;;;;17.57;100.00;101352.30;88436;275;22530;-74
2023/09/17 04:29:44;;;;;;;;;;;;;;;17.97;100.00;101353.89;88827;275;137627;-74
2023/09/17 04:31:46;;;;;;;13.40;12.30;;;;;;;18.29;100.00;101358.83;88368;276;25339;-76
2023/09/17 04:33:49;;;;;;;10.20;9.40;;;;;;;18.59;100.00;101357.79;89053;284;137002;-80
2023/09/17 04:35:56;;;;;;;11.90;10.10;;;;;;;18.88;100.00;101358.34;88473;282;23271;-73
2023/09/17 04:37:58;;;;;;;10.50;9.80;;;;;;;19.13;100.00;101355.66;88642;284;136307;-73
2023/09/17 04:40:08;;;;;;;11.60;10.60;;;;;;;19.38;100.00;101356.41;88670;279;137533;-74
2023/09/17 04:42:12;;;;;;;10.60;9.60;;;;;;;19.64;100.00;101357.45;88803;284;26498;-80
2023/09/17 04:44:14;;;;;;;10.90;9.70;;;;;;;19.92;100.00;101364.16;88918;278;138649;-82
2023/09/17 04:46:16;;;;;;;10.40;9.50;;;;;;;20.20;99.50;101364.30;88757;279;23048;-75
2023/09/17 04:48:24;;;;;;;9.50;8.80;;;;;;;20.40;97.22;101362.33;89169;274;136125;-79
2023/09/17 04:50:27;;;;;;;10.70;9.60;;;;;;;20.56;94.85;101360.33;88779;284;23981;-77
2023/09/17 04:52:29;;;;;;;9.60;8.70;;;;;;;20.69;93.86;101354.83;88934;283;135913;-75
2023/09/17 04:54:31;;;;;;;9.70;9.00;;;;;;;20.82;92.30;101359.11;88923;280;22673;-73
2023/09/17 04:56:32;;;;;;;9.40;8.50;;;;;;;20.91;90.66;101356.85;88737;283;136711;-81
2023/09/17 04:58:34;;;;;;;9.20;8.50;;;;;;;20.94;89.23;101355.71;89812;274;22619;-75
2023/09/17 05:00:38;;;;;;;9.10;8.40;;;;;;;21.03;89.53;101358.89;89814;280;135682;-81
2023/09/17 05:02:40;;;;;;;8.50;7.70;;;;;;;21.14;87.87;101357.38;88833;281;25170;-80
2023/09/17 05:04:43;;;;;;;9.90;9.10;;;;;;;21.28;87.15;101359.06;88567;275;137209;-67
2023/09/17 05:06:45;;;;;;;8.10;7.40;;;;;;;21.40;86.23;101354.83;89178;282;22523;-66
2023/09/17 05:08:48;;;;;;;8.70;8.00;;;;;;;21.56;85.22;101357.36;88302;281;136506;-66
2023/09/17 05:10:52;;;;;;;8.30;7.60;;;;;;;21.74;83.96;101355.36;88486;279;22539;-64
2023/09/17 05:12:56;;;;;;;8.50;7.90;;;;;;;21.89;83.05;101355.52;88238;283;135895;-67
2023/09/17 05:14:58;;;;;;;8.70;7.80;;;;;;;22.04;82.36;101353.66;88430;282;22620;-65
2023/09/17 05:17:01;;;;;;;8.80;8.20;;;;;;;22.18;80.86;101355.08;87806;282;698155;-68
2023/09/17 05:19:04;;;;;;;8.30;7.50;;;;;;;22.23;80.18;101347.81;88319;277;22536;-64
2023/09/17 05:21:06;;;;;;;7.50;6.90;;;;;;;22.22;80.54;101341.05;88277;282;136301;-60
2023/09/17 05:23:08;;;;;;;8.20;7.50;;;;;;;22.37;80.39;101354.98;88385;279;25240;-68
2023/09/17 05:25:11;;;;;;;9.20;8.50;;;;;;;22.43;80.82;101354.98;88318;282;136148;-65
2023/09/17 05:27:13;;;;;;;7.50;7.00;;;;;;;22.58;79.80;101358.59;88315;283;24344;-64
2023/09/17 05:29:16;;;;;;;8.10;7.60;;;;;;;22.70;78.94;101358.91;88289;275;137449;-62
2023/09/17 05:31:19;;;;;;;8.10;7.50;;;;;;;22.86;78.59;101357.23;88341;283;22577;-69
2023/09/17 05:33:23;;;;;;;7.90;7.30;;;;;;;23.01;78.02;101353.09;88114;276;137046;-65
2023/09/17 05:35:24;;;;;;;8.60;8.00;;;;;;;23.08;76.92;101341.52;88477;276;22780;-71
2023/09/17 05:37:27;;;;;;;9.20;8.30;;;;;;;23.23;76.73;101354.42;88384;281;136241;-67
2023/09/17 05:39:30;;;;;;;9.80;9.10;;;;;;;23.27;75.28;101355.15;88491;280;25112;-65
2023/09/17 05:41:32;;;;;;;10.00;9.10;;;;;;;23.17;74.97;101358.55;88106;284;136038;-64
2023/09/17 05:43:34;;;;;;;8.90;8.30;;;;;;;23.02;75.57;101353.87;88452;275;22675;-68
2023/09/17 05:45:36;;;;;;;9.10;8.50;;;;;;;22.91;76.45;101359.23;88323;283;136435;-67
2023/09/17 05:47:41;;;;;;;8.80;8.20;;;;;;;22.89;76.90;101355.60;88505;281;24031;-67
2023/09/17 05:49:43;;;;;;;9.20;8.50;;;;;;;22.93;77.00;101353.38;88404;275;139027;-65
2023/09/17 05:51:45;;;;;;;9.60;8.90;;;;;;;22.96;77.20;101350.63;88442;275;22551;-66
2023/09/17 05:53:47;;;;;;;10.60;9.50;;;;;;;22.98;76.41;101349.39;88133;282;136850;-68
2023/09/17 05:55:50;;;;;;;10.70;9.90;;;;;;;22.93;77.59;101348.10;88369;275;24057;-71
2023/09/17 05:57:52;;;;;;;11.80;10.80;;;;;;;22.96;77.55;101348.10;88404;283;136010;-70
2023/09/17 05:59:54;;;;;;;10.90;10.10;;;;;;;22.97;77.26;101347.95;88403;284;22638;-67
2023/09/17 06:01:57;;;;;;;13.30;12.10;;;;;;;23.03;77.97;101339.68;88276;282;136558;-64
2023/09/17 06:03:59;;;;;;;11.60;10.60;;;;;;;23.14;77.25;101346.30;88368;284;23620;-68
2023/09/17 06:06:02;;;;;;;11.30;10.40;;;;;;;23.21;76.40;101349.96;88446;282;136221;-65
2023/09/17 06:08:04;;;;;;;12.20;11.20;;;;;;;23.17;76.69;101346.58;88299;283;137444;-64
2023/09/17 06:10:07;;;;;;;12.30;11.30;;;;;;;23.17;76.89;101348.59;88440;275;22602;-63
2023/09/17 06:12:09;;;;;;;12.80;11.90;;;;;;;23.13;76.70;101350.64;88407;282;136538;-63
2023/09/17 06:14:11;;;;;;;13.70;12.40;;;;;;;23.01;77.83;101350.92;88528;282;22549;-66
2023/09/17 06:16:15;;;;;;;11.70;10.70;;;;;;;23.06;78.19;101352.53;88206;282;136670;-64
2023/09/17 06:18:17;;;;;;;12.60;11.40;;;;;;;23.24;77.21;101351.89;88352;283;22773;-67
2023/09/17 06:20:20;;;;;;;11.70;10.70;;;;;;;23.18;77.09;101353.38;88343;276;136299;-63
2023/09/17 06:22:25;;;;;;;11.60;10.70;;;;;;;23.12;78.34;101353.56;88477;280;22559;-66
2023/09/17 06:24:28;;;;;;;11.80;10.80;;;;;;;23.19;77.87;101354.54;88646;279;138092;-65
2023/09/17 06:26:29;;;;;;;11.20;10.40;;;;;;;23.26;77.60;101356.51;88568;276;24067;-60
2023/09/17 06:28:31;;;;;;;12.40;11.40;;;;;;;23.32;77.33;101357.90;88368;283;136334;-64
2023/09/17 06:30:33;;;;;;;11.40;10.30;;;;;;;23.28;77.79;101352.02;88355;283;24058;-65
2023/09/17 06:32:35;;;;;;;13.00;11.70;;;;;;;23.30;77.82;101357.81;88284;282;136692;-63
2023/09/17 06:34:37;;;;;;;11.60;10.70;;;;;;;23.35;77.90;101359.91;89831;284;23029;-63
2023/09/17 06:36:40;;;;;;;12.50;11.30;;;;;;;23.42;77.72;101360.98;88381;277;136032;-68
2023/09/17 06:38:43;;;;;;;12.60;11.60;;;;;;;23.32;78.00;101359.70;88443;282;25197;-68
2023/09/17 06:40:45;;;;;;;13.30;12.20;;;;;;;22.93;79.49;101361.15;88359;274;136688;-65
2023/09/17 06:42:48;;;;;;;15.00;12.30;;;;;;;22.42;82.04;101362.48;88319;276;25389;-66
2023/09/17 06:44:50;;;;;;;12.40;11.30;;;;;;;21.97;83.56;101366.27;88365;282;137759;-65
2023/09/17 06:46:52;;;;;;;12.30;11.30;;;;;;;21.56;86.30;101364.66;88267;276;23865;-65
2023/09/17 06:48:54;;;;;;;13.40;12.00;;;;;;;21.22;88.47;101366.30;88261;282;138013;-63
2023/09/17 06:50:58;;;;;;;12.90;11.90;;;;;;;20.92;90.34;101362.23;88328;282;23846;-63
2023/09/17 06:53:00;;;;;;;13.00;11.90;;;;;;;20.63;91.24;101361.05;88171;277;136494;-62
2023/09/17 06:55:04;;;;;;;13.50;12.30;;;;;;;20.40;93.06;101369.45;88748;275;22534;-60
2023/09/17 06:57:07;;;;;;;13.70;12.60;;;;;;;20.22;94.51;101371.40;88269;276;136488;-61
2023/09/17 06:59:09;;;;;;;13.80;12.60;;;;;;;20.05;95.75;101372.39;88582;278;24367;-61
2023/09/17 07:01:11;;;;;;;13.80;12.50;;;;;;;19.87;95.86;101374.13;88064;276;139352;-64
2023/09/17 07:03:14;;;;;;;12.80;11.70;;;;;;;19.73;96.17;101376.92;88340;278;24013;-65
2023/09/17 07:05:16;;;;;;;12.20;11.30;;;;;;;19.60;96.22;101372.34;88256;282;136697;-61
2023/09/17 07:07:19;;;;;;;13.00;12.00;;;;;;;19.55;96.63;101369.80;88397;278;22541;-62
2023/09/17 07:09:21;;;;;;;12.20;11.20;;;;;;;19.54;97.07;101371.69;88322;282;138699;-60
2023/09/17 07:11:23;;;;;;;14.30;12.50;;;;;;;19.57;96.99;101370.88;88342;279;25200;-62
2023/09/17 07:13:25;;;;;;;11.30;10.40;;;;;;;19.57;97.30;101370.70;88294;279;138264;-64
2023/09/17 07:15:27;;;;;;;12.40;11.40;;;;;;;19.58;97.44;101371.81;88346;279;22561;-62
2023/09/17 07:17:29;;;;;;;10.70;9.90;;;;;;;19.58;96.84;101370.58;88439;275;136952;-61
2023/09/17 07:19:33;;;;;;;11.90;10.80;;;;;;;19.56;97.07;101373.70;88464;274;22534;-59
2023/09/17 07:21:35;;;;;;;13.40;12.10;;;;;;;19.58;94.84;101369.90;88321;280;137239;-61
2023/09/17 07:23:37;;;;;;;12.50;11.40;;;;;;;19.58;94.09;101366.45;88373;282;22912;-62
2023/09/17 07:25:39;;;;;;;12.10;11.10;;;;;;;19.52;93.44;101367.72;88202;282;136645;-61
2023/09/17 07:27:41;;;;;;;12.60;11.60;;;;;;;19.46;92.57;101365.65;88332;275;23531;-61
2023/09/17 07:29:45;;;;;;;12.40;11.40;;;;;;;19.41;92.78;101368.85;88254;279;136955;-65
2023/09/17 07:31:47;;;;;;;13.10;11.70;;;;;;;19.36;92.60;101366.58;88414;275;24101;-61
2023/09/17 07:33:49;;;;;;;11.60;10.60;;;;;;;19.33;92.82;101364.58;88324;282;136556;-63
2023/09/17 07:35:52;;;;;;;12.90;11.70;;;;;;;19.33;93.46;101363.02;88277;274;22534;-61
2023/09/17 07:37:54;;;;;;;10.30;9.50;;;;;;;19.38;92.77;101362.06;88435;275;136614;-62
2023/09/17 07:40:01;;;;;;;10.70;9.80;;;;;;;19.42;91.67;101360.27;88775;274;22610;-61
2023/09/17 07:42:03;;;;;;;11.60;10.80;;;;;;;19.47;92.17;101357.57;88241;279;25179;-60
2023/09/17 07:44:05;;;;;;;10.40;9.50;;;;;;;19.52;91.35;101355.61;88256;275;137878;-62
2023/09/17 07:46:11;;;;;;;10.30;9.40;;;;;;;19.56;91.31;101354.33;88210;282;22553;-60
2023/09/17 07:48:13;;;;;;;10.50;9.70;;;;;;;19.59;90.49;101352.91;88427;282;139152;-59
2023/09/17 07:50:15;;;;;;;8.90;8.30;;;;;;;19.61;90.03;101352.07;88480;279;22536;-58
2023/09/17 07:52:18;;;;;;;10.00;9.30;;;;;;;19.65;89.76;101351.35;88470;274;137530;-60
2023/09/17 07:54:19;;;;;;;9.90;8.90;;;;;;;19.70;89.90;101351.73;88298;276;24154;-61
2023/09/17 07:56:21;;;;;;;9.60;8.50;;;;;;;19.78;89.73;101350.55;88310;282;136492;-60
2023/09/17 07:58:25;;;;;;;10.40;9.50;;;;;;;19.87;89.45;101353.66;88094;282;25213;-60
2023/09/17 08:00:27;;;;;;;7.70;7.20;;;;;;;19.93;88.78;101349.25;88410;282;136549;-65
2023/09/17 08:02:29;;;;;;;9.70;8.60;;;;;;;19.99;88.25;101347.52;88271;275;22817;-63
2023/09/17 08:04:31;;;;;;;7.50;7.00;;;;;;;20.09;87.42;101346.02;88169;280;136425;-63
2023/09/17 08:06:35;;;;;;;8.60;8.00;;;;;;;20.17;86.54;101344.84;88317;274;25167;-63
2023/09/17 08:08:37;;;;;;;8.10;7.30;;;;;;;20.24;86.16;101343.64;88225;282;137607;-64
2023/09/17 08:10:38;;;;;;;8.70;8.10;;;;;;;20.32;85.11;101343.16;88184;280;24450;-64
2023/09/17 08:12:40;;;;;;;8.20;7.40;;;;;;;20.35;84.40;101341.45;88088;282;138269;-62
2023/09/17 08:14:46;;;;;;;7.30;6.80;;;;;;;20.33;84.57;101340.56;88250;274;22552;-64
2023/09/17 08:16:49;;;;;;;9.40;8.50;;;;;;;20.34;85.24;101339.63;88199;282;137864;-63
2023/09/17 08:18:51;;;;;;;8.70;8.10;;;;;;;20.32;85.00;101327.71;88437;279;22668;-68
2023/09/17 08:20:53;;;;;;;8.30;7.70;;;;;;;20.39;84.25;101330.73;88247;282;136339;-62
2023/09/17 08:22:57;;;;;;;7.00;6.60;;;;;;;20.43;83.83;101328.35;88346;274;22536;-63
2023/09/17 08:24:59;;;;;;;7.10;6.40;;;;;;;20.46;83.47;101324.30;88348;274;136199;-60
2023/09/17 08:27:01;;;;;;;6.90;6.40;;;;;;;20.49;82.08;101319.77;88454;274;25134;-62
2023/09/17 08:29:05;;;;;;;7.10;6.40;;;;;;;20.47;81.57;101318.79;88271;274;136557;-63
2023/09/17 08:31:07;;;;;;;6.10;5.70;;;;;;;20.48;82.28;101318.33;89077;274;22544;-64
2023/09/17 08:33:10;;;;;;;6.80;6.40;;;;;;;20.57;81.66;101315.27;88544;279;136353;-62
2023/09/17 08:35:16;;;;;;;5.70;4.90;;;;;;;20.58;78.97;101312.33;88341;278;24055;-64
2023/09/17 08:37:18;;;;;;;6.50;6.10;;;;;;;20.57;78.44;101315.98;88418;279;136252;-61
2023/09/17 08:39:20;;;;;;;7.40;6.60;;;;;;;20.53;79.53;101313.91;88421;278;22957;-65
2023/09/17 08:41:22;;;;;;;6.90;5.60;;;;;;;20.53;79.47;101316.58;88675;279;136711;-63
2023/09/17 08:43:25;;;;;;;5.90;5.50;;;;;;;20.49;78.93;101305.69;88768;282;25188;-63
2023/09/17 08:45:30;;;;;;;6.50;5.10;;;;;;;20.58;78.52;101315.63;88321;281;139072;-62
2023/09/17 08:47:32;;;;;;;5.80;5.30;;;;;;;20.67;78.60;101316.31;88664;282;25283;-63
2023/09/17 08:49:35;;;;;;;6.00;5.70;;;;;;;20.73;77.17;101322.59;88298;274;136225;-64
2023/09/17 08:51:43;;;;;;;6.10;5.50;;;;;;;20.74;77.38;101319.14;88447;282;22537;-68
2023/09/17 08:54:07;;;;;;;6.40;5.50;;;;;;;20.71;78.36;101314.73;88118;275;136574;-64
2023/09/17 08:56:13;;;;;;;5.70;5.30;;;;;;;20.69;78.94;101308.45;88286;280;137462;-65
2023/09/17 08:58:17;;;;;;;6.80;6.30;;;;;;;20.80;78.93;101316.16;88653;282;22539;-61
2023/09/17 09:00:21;;;;;;;;;;;;;;;20.88;77.51;101312.83;88449;279;136309;-65
2023/09/17 09:02:31;;;;;;;6.00;5.50;;;;;;;20.91;76.37;101313.77;88752;282;22574;-65
2023/09/17 09:04:34;;;;;;;6.10;5.50;;;;;;;20.90;76.22;101314.25;88241;275;137281;-71
2023/09/17 09:06:38;;;;;;;7.70;5.50;;;;;;;20.91;76.48;101314.48;91117;282;22824;-63
2023/09/17 09:08:42;;;;;;;5.00;4.60;;;;;;;20.98;75.23;101306.83;88017;283;136552;-66
2023/09/17 09:10:44;;;;;;;3.50;3.10;;;;;;;21.07;74.52;101311.05;88310;279;22531;-64
2023/09/17 09:12:47;;;;;;;3.60;3.20;;;;;;;21.18;70.61;101312.02;88186;283;136188;-65
2023/09/17 09:14:50;;;;;;;2.50;2.40;;;;;;;21.30;68.36;101313.11;88516;276;22527;-73
2023/09/17 09:19:07;;;;;;;3.50;3.30;;;;;;;21.31;65.96;101307.88;87362;303;601708;-79
2023/09/17 09:21:10;;;;;;;3.40;3.10;;;;;;;21.30;67.07;101312.48;88630;285;135572;-76
2023/09/17 09:23:12;;;;;;;2.90;2.70;;;;;;;21.32;67.04;101310.99;87937;288;22540;-75
2023/09/17 09:25:16;;;;;;;3.50;3.30;;;;;;;21.32;66.73;101308.82;87769;284;135584;-71